sensor_id;sensor_type;location;lat;lon;timestamp;temperature;humidity
27870;DHT22;15225;50.730;4.244;2022-12-20T15:18:30;11.60;63.40
27870;DHT22;15225;50.730;4.244;2022-12-20T15:23:27;11.80;51.00
27870;DHT22;15225;50.730;4.244;2022-12-20T15:25:53;11.80;46.70
27870;DHT22;15225;50.730;4.244;2022-12-20T15:28:24;11.80;44.10
27870;DHT22;15225;50.730;4.244;2022-12-20T15:30:51;11.90;41.20
27870;DHT22;15225;50.730;4.244;2022-12-20T15:33:21;11.90;40.50
27870;DHT22;15225;50.730;4.244;2022-12-20T15:35:47;11.80;40.30
27870;DHT22;15225;50.730;4.244;2022-12-20T15:38:15;11.80;42.20
27870;DHT22;15225;50.730;4.244;2022-12-20T15:40:43;11.70;41.00
27870;DHT22;15225;50.730;4.244;2022-12-20T15:43:12;11.60;47.40
27870;DHT22;15225;50.730;4.244;2022-12-20T15:45:38;11.60;50.90
27870;DHT22;15225;50.730;4.244;2022-12-20T15:48:04;11.70;46.10
27870;DHT22;15225;50.730;4.244;2022-12-20T15:50:30;11.80;42.90
27870;DHT22;15225;50.730;4.244;2022-12-20T15:52:55;12.00;35.80
27870;DHT22;15225;50.730;4.244;2022-12-20T15:55:22;12.10;31.90
27870;DHT22;15225;50.730;4.244;2022-12-20T15:57:48;12.00;27.70
27870;DHT22;15225;50.730;4.244;2022-12-20T16:00:14;12.00;29.10
27870;DHT22;15225;50.730;4.244;2022-12-20T16:02:40;11.90;31.70
27870;DHT22;15225;50.730;4.244;2022-12-20T16:05:09;12.00;34.10
27870;DHT22;15225;50.730;4.244;2022-12-20T16:07:35;12.10;28.00
27870;DHT22;15225;50.730;4.244;2022-12-20T16:10:01;12.10;27.40
27870;DHT22;15225;50.730;4.244;2022-12-20T16:12:32;12.10;28.10
27870;DHT22;15225;50.730;4.244;2022-12-20T16:14:58;12.00;29.40
27870;DHT22;15225;50.730;4.244;2022-12-20T16:17:24;12.10;25.60
27870;DHT22;15225;50.730;4.244;2022-12-20T16:19:49;12.10;28.70
27870;DHT22;15225;50.730;4.244;2022-12-20T16:22:20;12.20;24.40
27870;DHT22;15225;50.730;4.244;2022-12-20T16:24:50;12.10;25.40
27870;DHT22;15225;50.730;4.244;2022-12-20T16:27:16;12.00;28.20
27870;DHT22;15225;50.730;4.244;2022-12-20T16:29:42;12.10;27.80
27870;DHT22;15225;50.730;4.244;2022-12-20T16:32:18;12.20;23.90
27870;DHT22;15225;50.730;4.244;2022-12-20T16:34:44;12.10;22.30
27870;DHT22;15225;50.730;4.244;2022-12-20T16:37:10;12.10;27.30
27870;DHT22;15225;50.730;4.244;2022-12-20T16:39:36;12.20;29.20
27870;DHT22;15225;50.730;4.244;2022-12-20T16:42:02;12.20;22.40
27870;DHT22;15225;50.730;4.244;2022-12-20T16:44:28;12.30;19.30
27870;DHT22;15225;50.730;4.244;2022-12-20T16:46:53;12.20;22.50
27870;DHT22;15225;50.730;4.244;2022-12-20T16:49:19;12.30;22.50
27870;DHT22;15225;50.730;4.244;2022-12-20T16:51:47;12.30;23.30
27870;DHT22;15225;50.730;4.244;2022-12-20T16:54:20;12.40;19.90
27870;DHT22;15225;50.730;4.244;2022-12-20T16:56:48;12.30;20.20
27870;DHT22;15225;50.730;4.244;2022-12-20T16:59:16;12.30;17.50
27870;DHT22;15225;50.730;4.244;2022-12-20T17:01:43;12.40;16.70
27870;DHT22;15225;50.730;4.244;2022-12-20T17:04:13;12.40;17.60
27870;DHT22;15225;50.730;4.244;2022-12-20T17:06:40;12.30;19.30
27870;DHT22;15225;50.730;4.244;2022-12-20T17:09:06;12.30;20.80
27870;DHT22;15225;50.730;4.244;2022-12-20T17:11:32;12.30;22.10
27870;DHT22;15225;50.730;4.244;2022-12-20T17:13:59;12.30;20.40
27870;DHT22;15225;50.730;4.244;2022-12-20T17:16:26;12.20;19.80
27870;DHT22;15225;50.730;4.244;2022-12-20T17:18:53;12.20;23.00
27870;DHT22;15225;50.730;4.244;2022-12-20T17:21:41;12.30;24.60
27870;DHT22;15225;50.730;4.244;2022-12-20T17:24:20;12.30;21.30
27870;DHT22;15225;50.730;4.244;2022-12-20T17:26:47;12.40;18.90
27870;DHT22;15225;50.730;4.244;2022-12-20T17:29:13;12.30;18.40
27870;DHT22;15225;50.730;4.244;2022-12-20T17:31:40;12.30;18.20
27870;DHT22;15225;50.730;4.244;2022-12-20T17:34:26;12.30;18.70
27870;DHT22;15225;50.730;4.244;2022-12-20T17:36:54;12.40;16.40
27870;DHT22;15225;50.730;4.244;2022-12-20T17:39:20;12.40;16.70
27870;DHT22;15225;50.730;4.244;2022-12-20T17:41:47;12.40;12.40
27870;DHT22;15225;50.730;4.244;2022-12-20T17:46:44;12.30;17.10
27870;DHT22;15225;50.730;4.244;2022-12-20T17:49:09;12.30;15.50
27870;DHT22;15225;50.730;4.244;2022-12-20T17:51:35;12.30;18.10
27870;DHT22;15225;50.730;4.244;2022-12-20T17:54:01;12.20;18.90
27870;DHT22;15225;50.730;4.244;2022-12-20T17:56:29;12.30;17.40
27870;DHT22;15225;50.730;4.244;2022-12-20T17:58:56;12.30;18.50
27870;DHT22;15225;50.730;4.244;2022-12-20T18:01:24;12.30;11.80
27870;DHT22;15225;50.730;4.244;2022-12-20T18:03:52;12.30;17.60
27870;DHT22;15225;50.730;4.244;2022-12-20T18:06:18;12.30;16.80
27870;DHT22;15225;50.730;4.244;2022-12-20T18:08:48;12.30;20.60
27870;DHT22;15225;50.730;4.244;2022-12-20T18:11:15;12.30;16.30
27870;DHT22;15225;50.730;4.244;2022-12-20T18:13:42;12.30;14.30
27870;DHT22;15225;50.730;4.244;2022-12-20T18:16:09;12.30;15.80
27870;DHT22;15225;50.730;4.244;2022-12-20T18:18:35;12.30;18.20
27870;DHT22;15225;50.730;4.244;2022-12-20T18:21:06;12.30;19.70
27870;DHT22;15225;50.730;4.244;2022-12-20T18:23:32;12.30;21.70
27870;DHT22;15225;50.730;4.244;2022-12-20T18:26:10;12.30;20.80
27870;DHT22;15225;50.730;4.244;2022-12-20T18:28:37;12.40;17.40
27870;DHT22;15225;50.730;4.244;2022-12-20T18:31:05;12.50;8.50
27870;DHT22;15225;50.730;4.244;2022-12-20T18:33:31;12.40;11.80
27870;DHT22;15225;50.730;4.244;2022-12-20T18:36:02;12.30;15.50
27870;DHT22;15225;50.730;4.244;2022-12-20T18:38:28;12.30;14.60
27870;DHT22;15225;50.730;4.244;2022-12-20T18:41:00;12.40;14.80
27870;DHT22;15225;50.730;4.244;2022-12-20T18:43:27;12.30;18.60
27870;DHT22;15225;50.730;4.244;2022-12-20T18:45:53;12.20;23.60
27870;DHT22;15225;50.730;4.244;2022-12-20T18:48:19;12.30;24.80
27870;DHT22;15225;50.730;4.244;2022-12-20T18:50:45;12.30;14.90
27870;DHT22;15225;50.730;4.244;2022-12-20T18:53:11;12.40;12.70
27870;DHT22;15225;50.730;4.244;2022-12-20T18:55:37;12.40;12.40
27870;DHT22;15225;50.730;4.244;2022-12-20T18:58:03;12.40;12.70
27870;DHT22;15225;50.730;4.244;2022-12-20T19:00:29;12.40;17.10
27870;DHT22;15225;50.730;4.244;2022-12-20T19:02:55;12.40;14.50
27870;DHT22;15225;50.730;4.244;2022-12-20T19:05:25;12.40;15.10
27870;DHT22;15225;50.730;4.244;2022-12-20T19:07:54;12.40;14.20
27870;DHT22;15225;50.730;4.244;2022-12-20T19:10:19;12.40;12.30
27870;DHT22;15225;50.730;4.244;2022-12-20T19:12:45;12.50;11.70
27870;DHT22;15225;50.730;4.244;2022-12-20T19:15:11;12.40;14.00
27870;DHT22;15225;50.730;4.244;2022-12-20T19:17:36;12.40;15.40
27870;DHT22;15225;50.730;4.244;2022-12-20T19:20:02;12.50;14.20
27870;DHT22;15225;50.730;4.244;2022-12-20T19:22:29;12.50;10.20
27870;DHT22;15225;50.730;4.244;2022-12-20T19:24:55;12.50;8.40
27870;DHT22;15225;50.730;4.244;2022-12-20T19:27:21;12.60;5.90
27870;DHT22;15225;50.730;4.244;2022-12-20T19:29:46;12.50;9.80
27870;DHT22;15225;50.730;4.244;2022-12-20T19:32:12;12.40;14.40
27870;DHT22;15225;50.730;4.244;2022-12-20T19:34:38;12.30;18.00
27870;DHT22;15225;50.730;4.244;2022-12-20T19:37:03;12.40;13.30
27870;DHT22;15225;50.730;4.244;2022-12-20T19:39:29;12.40;10.20
27870;DHT22;15225;50.730;4.244;2022-12-20T19:41:55;12.40;15.80
27870;DHT22;15225;50.730;4.244;2022-12-20T19:44:21;12.30;14.60
27870;DHT22;15225;50.730;4.244;2022-12-20T19:46:46;12.30;16.70
27870;DHT22;15225;50.730;4.244;2022-12-20T19:49:12;12.30;16.20
27870;DHT22;15225;50.730;4.244;2022-12-20T19:51:38;12.40;13.30
27870;DHT22;15225;50.730;4.244;2022-12-20T19:54:04;12.30;15.90
27870;DHT22;15225;50.730;4.244;2022-12-20T19:56:32;12.40;16.10
27870;DHT22;15225;50.730;4.244;2022-12-20T19:58:59;12.40;15.80
27870;DHT22;15225;50.730;4.244;2022-12-20T20:01:25;12.40;12.20
27870;DHT22;15225;50.730;4.244;2022-12-20T20:03:57;12.40;16.40
27870;DHT22;15225;50.730;4.244;2022-12-20T20:06:25;12.40;13.10
27870;DHT22;15225;50.730;4.244;2022-12-20T20:08:51;12.40;15.20
27870;DHT22;15225;50.730;4.244;2022-12-20T20:11:17;12.50;7.70
27870;DHT22;15225;50.730;4.244;2022-12-20T20:13:44;12.40;15.10
27870;DHT22;15225;50.730;4.244;2022-12-20T20:16:10;12.50;7.90
27870;DHT22;15225;50.730;4.244;2022-12-20T20:18:37;12.50;8.60
27870;DHT22;15225;50.730;4.244;2022-12-20T20:21:16;12.40;11.00
27870;DHT22;15225;50.730;4.244;2022-12-20T20:23:45;12.50;5.40
27870;DHT22;15225;50.730;4.244;2022-12-20T20:26:15;12.40;13.30
27870;DHT22;15225;50.730;4.244;2022-12-20T20:28:41;12.40;13.00
27870;DHT22;15225;50.730;4.244;2022-12-20T20:31:09;12.40;9.70
27870;DHT22;15225;50.730;4.244;2022-12-20T20:33:36;12.30;20.00
27870;DHT22;15225;50.730;4.244;2022-12-20T20:36:02;12.40;17.90
27870;DHT22;15225;50.730;4.244;2022-12-20T20:38:29;12.50;13.80
27870;DHT22;15225;50.730;4.244;2022-12-20T20:40:55;12.60;5.50
27870;DHT22;15225;50.730;4.244;2022-12-20T20:43:21;12.60;5.10
27870;DHT22;15225;50.730;4.244;2022-12-20T20:45:48;12.60;4.70
27870;DHT22;15225;50.730;4.244;2022-12-20T20:48:13;12.60;4.20
27870;DHT22;15225;50.730;4.244;2022-12-20T20:50:40;12.60;6.80
27870;DHT22;15225;50.730;4.244;2022-12-20T20:53:06;12.60;5.00
27870;DHT22;15225;50.730;4.244;2022-12-20T20:55:33;12.60;7.30
27870;DHT22;15225;50.730;4.244;2022-12-20T20:57:58;12.60;5.70
27870;DHT22;15225;50.730;4.244;2022-12-20T21:00:24;12.60;5.90
27870;DHT22;15225;50.730;4.244;2022-12-20T21:02:50;12.60;2.40
27870;DHT22;15225;50.730;4.244;2022-12-20T21:05:16;12.60;6.90
27870;DHT22;15225;50.730;4.244;2022-12-20T21:07:42;12.60;2.90
27870;DHT22;15225;50.730;4.244;2022-12-20T21:10:09;12.60;7.20
27870;DHT22;15225;50.730;4.244;2022-12-20T21:12:35;12.60;6.10
27870;DHT22;15225;50.730;4.244;2022-12-20T21:15:01;12.70;3.10
27870;DHT22;15225;50.730;4.244;2022-12-20T21:17:30;12.70;3.10
27870;DHT22;15225;50.730;4.244;2022-12-20T21:19:55;12.70;1.70
27870;DHT22;15225;50.730;4.244;2022-12-20T21:22:21;12.80;1.50
27870;DHT22;15225;50.730;4.244;2022-12-20T21:24:48;12.80;1.00
27870;DHT22;15225;50.730;4.244;2022-12-20T21:27:14;12.80;1.00
27870;DHT22;15225;50.730;4.244;2022-12-20T21:29:39;12.80;1.00
27870;DHT22;15225;50.730;4.244;2022-12-20T21:32:05;12.80;1.00
27870;DHT22;15225;50.730;4.244;2022-12-20T21:34:31;12.90;1.00
27870;DHT22;15225;50.730;4.244;2022-12-20T21:36:57;12.90;1.00
27870;DHT22;15225;50.730;4.244;2022-12-20T21:39:23;12.90;1.00
27870;DHT22;15225;50.730;4.244;2022-12-20T21:41:48;12.90;1.00
27870;DHT22;15225;50.730;4.244;2022-12-20T21:44:14;12.90;1.00
27870;DHT22;15225;50.730;4.244;2022-12-20T21:46:40;12.90;1.00
27870;DHT22;15225;50.730;4.244;2022-12-20T21:49:06;13.00;1.00
27870;DHT22;15225;50.730;4.244;2022-12-20T21:51:32;12.90;1.00
27870;DHT22;15225;50.730;4.244;2022-12-20T21:54:00;12.90;1.00
27870;DHT22;15225;50.730;4.244;2022-12-20T21:56:29;12.80;1.00
27870;DHT22;15225;50.730;4.244;2022-12-20T21:58:55;12.80;1.00
27870;DHT22;15225;50.730;4.244;2022-12-20T22:01:23;12.90;1.00
27870;DHT22;15225;50.730;4.244;2022-12-20T22:03:54;12.90;1.00
27870;DHT22;15225;50.730;4.244;2022-12-20T22:06:20;13.00;1.00
27870;DHT22;15225;50.730;4.244;2022-12-20T22:08:46;13.00;1.00
27870;DHT22;15225;50.730;4.244;2022-12-20T22:11:14;13.00;1.00
27870;DHT22;15225;50.730;4.244;2022-12-20T22:13:40;12.90;1.00
27870;DHT22;15225;50.730;4.244;2022-12-20T22:16:07;12.90;1.00
27870;DHT22;15225;50.730;4.244;2022-12-20T22:18:34;13.00;1.00
27870;DHT22;15225;50.730;4.244;2022-12-20T22:21:05;13.00;1.00
27870;DHT22;15225;50.730;4.244;2022-12-20T22:23:31;13.00;1.00
27870;DHT22;15225;50.730;4.244;2022-12-20T22:26:04;12.90;1.00
27870;DHT22;15225;50.730;4.244;2022-12-20T22:28:30;12.90;1.00
27870;DHT22;15225;50.730;4.244;2022-12-20T22:30:56;12.90;1.00
27870;DHT22;15225;50.730;4.244;2022-12-20T22:33:22;12.90;1.00
27870;DHT22;15225;50.730;4.244;2022-12-20T22:35:48;13.00;1.00
27870;DHT22;15225;50.730;4.244;2022-12-20T22:38:13;13.00;1.00
27870;DHT22;15225;50.730;4.244;2022-12-20T22:40:41;13.10;1.00
